createdAt,value
2022-08-10T00:02:14.070Z,102671.69
2022-08-10T00:05:11.097Z,102665.31
2022-08-10T00:08:07.886Z,102671.22
2022-08-10T00:11:05.186Z,102656.84
2022-08-10T00:14:13.408Z,102657.84
2022-08-10T00:17:10.058Z,102655.94
2022-08-10T00:20:08.503Z,102664.47
2022-08-10T00:23:06.147Z,102659.56
2022-08-10T00:26:03.354Z,102658.66
2022-08-10T00:29:00.273Z,102658.44
2022-08-10T00:31:59.083Z,102649.50
2022-08-10T00:34:56.970Z,102646.31
2022-08-10T00:37:57.583Z,102644.41
2022-08-10T00:40:55.108Z,102644.00
2022-08-10T00:43:52.260Z,102641.34
2022-08-10T00:46:49.085Z,102647.47
2022-08-10T00:49:47.125Z,102646.41
2022-08-10T00:52:44.523Z,102640.47
2022-08-10T00:56:39.807Z,102640.91
2022-08-10T00:58:59.210Z,102638.41
2022-08-10T01:02:08.314Z,102634.59
2022-08-10T01:05:09.903Z,102629.31
2022-08-10T01:08:57.694Z,102624.84
2022-08-10T01:12:39.092Z,102629.00
2022-08-10T01:15:37.945Z,102626.56
2022-08-10T01:18:56.389Z,102631.31
2022-08-10T01:22:15.073Z,102625.53
2022-08-10T01:25:36.101Z,102628.88
2022-08-10T01:29:30.753Z,102623.41
2022-08-10T01:32:37.201Z,102632.50
2022-08-10T01:35:40.495Z,102630.91
2022-08-10T01:38:40.423Z,102628.66
2022-08-10T01:41:46.426Z,102631.41
2022-08-10T01:44:48.168Z,102627.72
2022-08-10T01:48:04.436Z,102634.09
2022-08-10T01:51:18.925Z,102629.25
2022-08-10T01:54:22.740Z,102625.09
2022-08-10T01:57:20.649Z,102619.03
2022-08-10T02:00:18.290Z,102628.16
2022-08-10T02:03:15.367Z,102626.75
2022-08-10T02:06:12.270Z,102621.38
2022-08-10T02:09:09.394Z,102629.00
2022-08-10T02:12:08.760Z,102623.78
2022-08-10T02:15:08.680Z,102637.69
2022-08-10T02:18:06.338Z,102624.38
2022-08-10T02:21:04.779Z,102620.59
2022-08-10T02:24:02.118Z,102620.41
2022-08-10T02:27:00.437Z,102615.19
2022-08-10T02:30:00.247Z,102622.25
2022-08-10T02:32:58.475Z,102620.00
2022-08-10T02:35:57.348Z,102621.75
2022-08-10T02:38:58.250Z,102623.41
2022-08-10T02:45:03.125Z,102616.91
2022-08-10T02:45:42.797Z,102606.16
2022-08-10T02:48:46.787Z,102618.44
2022-08-10T02:52:21.373Z,102611.75
2022-08-10T02:55:41.035Z,102613.91
2022-08-10T02:58:43.147Z,102605.88
2022-08-10T03:01:45.043Z,102603.25
2022-08-10T03:04:55.706Z,102603.03
2022-08-10T03:08:03.706Z,102602.63
2022-08-10T03:11:03.237Z,102603.66
2022-08-10T03:14:00.345Z,102609.50
2022-08-10T03:16:57.596Z,102606.28
2022-08-10T03:20:33.659Z,102614.41
2022-08-10T03:23:15.348Z,102605.72
2022-08-10T03:26:12.766Z,102616.16
2022-08-10T03:29:11.497Z,102609.13
2022-08-10T03:32:08.263Z,102601.41
2022-08-10T03:35:06.185Z,102603.31
2022-08-10T03:38:03.519Z,102611.31
2022-08-10T03:41:02.490Z,102601.53
2022-08-10T03:43:59.869Z,102610.00
2022-08-10T03:46:59.826Z,102605.00
2022-08-10T03:49:57.453Z,102618.03
2022-08-10T03:53:00.525Z,102606.72
2022-08-10T03:56:30.054Z,102608.09
2022-08-10T03:59:16.477Z,102611.75
2022-08-10T04:02:44.856Z,102611.06
2022-08-10T04:05:38.454Z,102604.47
2022-08-10T04:08:40.126Z,102605.22
2022-08-10T04:11:37.223Z,102605.97
2022-08-10T04:14:49.531Z,102618.06
2022-08-10T04:18:04.013Z,102606.06
2022-08-10T04:21:07.354Z,102609.63
2022-08-10T04:24:04.910Z,102621.41
2022-08-10T04:27:02.572Z,102606.28
2022-08-10T04:29:59.630Z,102603.50
2022-08-10T04:32:56.942Z,102606.25
2022-08-10T04:35:54.058Z,102609.75
2022-08-10T04:38:52.407Z,102610.59
2022-08-10T04:41:49.490Z,102606.16
2022-08-10T04:44:46.273Z,102611.19
2022-08-10T04:47:58.045Z,102609.94
2022-08-10T04:51:00.822Z,102607.91
2022-08-10T04:54:05.112Z,102605.59
2022-08-10T04:57:04.713Z,102605.78
2022-08-10T05:00:01.929Z,102606.25
2022-08-10T05:03:04.470Z,102603.09
2022-08-10T05:06:01.490Z,102601.91
2022-08-10T05:08:59.321Z,102606.28
2022-08-10T05:11:56.542Z,102607.09
2022-08-10T05:14:53.860Z,102600.91
2022-08-10T05:18:08.173Z,102603.38
2022-08-10T05:21:06.494Z,102609.31
2022-08-10T05:24:04.599Z,102605.41
2022-08-10T05:27:10.079Z,102611.19
2022-08-10T05:30:08.698Z,102606.59
2022-08-10T05:33:08.807Z,102606.66
2022-08-10T05:36:06.791Z,102607.50
2022-08-10T05:39:03.443Z,102611.03
2022-08-10T05:42:01.168Z,102609.28
2022-08-10T05:44:58.531Z,102601.13
2022-08-10T05:48:56.406Z,102608.53
2022-08-10T05:51:12.343Z,102613.06
2022-08-10T05:54:15.067Z,102609.88
2022-08-10T05:57:12.797Z,102621.81
2022-08-10T06:00:37.398Z,102625.41
2022-08-10T06:03:32.037Z,102621.34
2022-08-10T06:06:30.222Z,102631.13
2022-08-10T06:09:27.733Z,102629.28
2022-08-10T06:12:29.214Z,102632.97
2022-08-10T06:15:50.508Z,102636.00
2022-08-10T06:18:43.690Z,102639.72
2022-08-10T06:21:40.441Z,102633.69
2022-08-10T06:25:32.057Z,102638.38
2022-08-10T06:28:16.142Z,102636.09
2022-08-10T06:31:13.376Z,102628.28
2022-08-10T06:34:11.038Z,102628.34
2022-08-10T06:37:08.889Z,102631.88
2022-08-10T06:40:07.162Z,102633.19
2022-08-10T06:43:07.002Z,102628.56
2022-08-10T06:46:12.507Z,102619.81
2022-08-10T06:49:09.585Z,102621.09
2022-08-10T06:52:07.405Z,102618.22
2022-08-10T06:55:05.286Z,102615.22
2022-08-10T06:58:02.268Z,102619.59
2022-08-10T07:01:05.689Z,102613.88
2022-08-10T07:04:10.604Z,102627.38
2022-08-10T07:07:07.976Z,102631.63
2022-08-10T07:10:06.133Z,102622.94
2022-08-10T07:13:03.316Z,102618.19
2022-08-10T07:16:00.894Z,102623.69
2022-08-10T07:18:58.767Z,102628.06
2022-08-10T07:21:57.912Z,102628.06
2022-08-10T07:24:56.302Z,102639.31
2022-08-10T07:28:00.303Z,102630.22
2022-08-10T07:30:58.695Z,102638.13
2022-08-10T07:33:55.589Z,102642.38
2022-08-10T07:36:53.102Z,102633.97
2022-08-10T07:40:01.938Z,102628.28
2022-08-10T07:43:01.767Z,102637.13
2022-08-10T07:45:58.903Z,102637.25
2022-08-10T07:49:18.919Z,102637.06
2022-08-10T07:52:16.553Z,102642.47
2022-08-10T07:55:16.588Z,102631.13
2022-08-10T07:58:14.337Z,102634.03
2022-08-10T08:01:11.617Z,102623.06
2022-08-10T08:04:11.850Z,102620.72
2022-08-10T08:07:09.875Z,102617.34
2022-08-10T08:10:07.272Z,102610.84
2022-08-10T08:13:04.390Z,102613.81
2022-08-10T08:16:20.343Z,102620.84
2022-08-10T08:19:28.216Z,102612.25
2022-08-10T08:24:10.568Z,102609.75
2022-08-10T08:25:49.557Z,102608.53
2022-08-10T08:28:48.691Z,102613.03
2022-08-10T08:32:01.153Z,102616.94
2022-08-10T08:35:08.493Z,102613.41
2022-08-10T08:38:29.303Z,102613.13
2022-08-10T08:41:46.133Z,102616.91
2022-08-10T08:45:08.233Z,102612.44
2022-08-10T08:48:11.683Z,102611.19
2022-08-10T08:52:07.847Z,102608.44
2022-08-10T08:54:42.833Z,102612.25
2022-08-10T08:58:14.675Z,102603.66
2022-08-10T09:01:14.592Z,102612.41
2022-08-10T09:04:29.527Z,102610.41
2022-08-10T09:08:01.005Z,102598.97
2022-08-10T09:11:04.519Z,102592.47
2022-08-10T09:14:31.571Z,102594.97
2022-08-10T09:17:51.367Z,102585.88
2022-08-10T09:20:57.759Z,102597.47
2022-08-10T09:24:05.669Z,102597.53
2022-08-10T09:27:07.806Z,102599.22
2022-08-10T09:30:06.789Z,102589.34
2022-08-10T09:36:24.604Z,102592.19
2022-08-10T09:36:48.939Z,102590.19
2022-08-10T09:40:12.596Z,102579.03
2022-08-10T09:43:27.864Z,102574.50
2022-08-10T09:46:36.673Z,102571.63
2022-08-10T09:49:55.315Z,102571.59
2022-08-10T09:53:20.275Z,102572.41
2022-08-10T09:56:26.702Z,102571.63
2022-08-10T10:00:01.876Z,102577.78
2022-08-10T10:03:26.318Z,102566.59
2022-08-10T10:06:26.940Z,102569.41
2022-08-10T10:09:36.906Z,102571.06
2022-08-10T10:12:36.697Z,102563.53
2022-08-10T10:15:53.476Z,102557.75
2022-08-10T10:19:08.324Z,102557.72
2022-08-10T10:22:26.259Z,102547.34
2022-08-10T10:25:51.637Z,102544.31
2022-08-10T10:29:37.441Z,102538.94
2022-08-10T10:32:57.315Z,102545.88
2022-08-10T10:35:55.924Z,102533.16
2022-08-10T10:38:53.885Z,102537.81
2022-08-10T10:42:04.718Z,102543.16
2022-08-10T10:45:14.760Z,102535.66
2022-08-10T10:48:39.948Z,102529.44
2022-08-10T10:52:14.982Z,102532.91
2022-08-10T10:56:13.156Z,102543.28
2022-08-10T10:59:53.614Z,102544.88
2022-08-10T11:02:42.398Z,102534.09
2022-08-10T11:06:02.735Z,102527.84
2022-08-10T11:09:06.045Z,102521.75
2022-08-10T11:12:30.091Z,102512.50
2022-08-10T11:15:33.516Z,102517.34
2022-08-10T11:18:42.697Z,102511.88
2022-08-10T11:22:00.066Z,102509.34
2022-08-10T11:25:03.226Z,102507.97
2022-08-10T11:28:11.017Z,102509.44
2022-08-10T11:31:13.903Z,102494.97
2022-08-10T11:34:47.474Z,102498.00
2022-08-10T11:38:32.112Z,102488.56
2022-08-10T11:42:11.987Z,102497.94
2022-08-10T11:45:02.506Z,102501.25
2022-08-10T11:48:53.415Z,102492.00
2022-08-10T11:51:53.921Z,102485.63
2022-08-10T11:54:53.413Z,102488.63
2022-08-10T11:57:56.264Z,102494.03
2022-08-10T12:01:02.256Z,102498.59
2022-08-10T12:04:03.684Z,102499.97
2022-08-10T12:07:04.969Z,102498.41
2022-08-10T12:10:22.891Z,102494.19
2022-08-10T12:13:36.751Z,102487.66
2022-08-10T12:16:37.318Z,102483.25
2022-08-10T12:20:01.123Z,102483.44
2022-08-10T12:23:28.143Z,102481.13
2022-08-10T12:26:37.818Z,102469.00
2022-08-10T12:30:18.561Z,102477.47
2022-08-10T12:34:02.597Z,102463.88
2022-08-10T12:37:21.210Z,102463.53
2022-08-10T12:40:37.014Z,102466.81
2022-08-10T12:44:07.101Z,102462.41
2022-08-10T12:47:13.986Z,102455.16
2022-08-10T12:50:32.895Z,102451.75
2022-08-10T12:54:32.453Z,102449.72
2022-08-10T12:57:29.946Z,102449.38
2022-08-10T13:00:33.404Z,102451.66
2022-08-10T13:04:21.506Z,102439.25
2022-08-10T13:06:49.747Z,102433.34
2022-08-10T13:09:55.819Z,102427.09
2022-08-10T13:12:54.714Z,102439.09
2022-08-10T13:15:51.643Z,102436.81
2022-08-10T13:18:49.716Z,102429.13
2022-08-10T13:21:46.967Z,102434.03
2022-08-10T13:24:45.641Z,102431.00
2022-08-10T13:28:02.698Z,102420.72
2022-08-10T13:31:16.904Z,102434.38
2022-08-10T13:34:43.096Z,102427.97
2022-08-10T13:37:44.244Z,102426.53
2022-08-10T13:40:40.903Z,102420.50
2022-08-10T13:43:38.147Z,102405.00
2022-08-10T13:46:37.948Z,102417.56
2022-08-10T13:49:49.496Z,102413.00
2022-08-10T13:52:51.205Z,102403.34
2022-08-10T13:55:56.158Z,102400.06
2022-08-10T13:58:54.434Z,102397.72
2022-08-10T14:01:51.912Z,102399.22
2022-08-10T14:04:48.666Z,102401.56
2022-08-10T14:08:00.123Z,102408.16
2022-08-10T14:11:09.973Z,102401.63
2022-08-10T14:14:14.555Z,102395.94
2022-08-10T14:17:11.766Z,102386.69
2022-08-10T14:20:14.011Z,102385.72
2022-08-10T14:23:13.550Z,102389.34
2022-08-10T14:26:10.858Z,102388.97
2022-08-10T14:29:18.884Z,102377.69
2022-08-10T14:32:17.959Z,102384.88
2022-08-10T14:36:21.328Z,102383.13
2022-08-10T14:38:34.245Z,102380.03
2022-08-10T14:42:01.064Z,102379.44
2022-08-10T14:44:54.895Z,102379.94
2022-08-10T14:47:59.521Z,102378.47
2022-08-10T14:50:59.064Z,102381.78
2022-08-10T14:53:59.817Z,102374.38
2022-08-10T14:56:57.820Z,102379.00
2022-08-10T15:00:24.834Z,102375.97
2022-08-10T15:03:58.483Z,102368.91
2022-08-10T15:07:12.289Z,102372.91
2022-08-10T15:10:09.836Z,102377.91
2022-08-10T15:13:07.795Z,102378.44
2022-08-10T15:16:27.756Z,102374.53
2022-08-10T15:20:01.033Z,102363.97
2022-08-10T15:22:50.014Z,102372.19
2022-08-10T15:25:57.894Z,102371.63
2022-08-10T15:29:23.070Z,102372.91
2022-08-10T15:32:40.539Z,102364.16
2022-08-10T15:35:59.758Z,102372.97
2022-08-10T15:38:59.795Z,102359.53
2022-08-10T15:42:00.242Z,102366.91
2022-08-10T15:44:58.014Z,102360.13
2022-08-10T15:48:03.113Z,102363.31
2022-08-10T15:51:05.775Z,102370.34
2022-08-10T15:54:07.503Z,102373.16
2022-08-10T15:57:11.408Z,102369.81
2022-08-10T16:00:10.474Z,102371.59
2022-08-10T16:03:15.820Z,102371.53
2022-08-10T16:06:23.160Z,102360.25
2022-08-10T16:10:26.381Z,102357.41
2022-08-10T16:12:59.590Z,102363.69
2022-08-10T16:16:00.949Z,102361.53
2022-08-10T16:18:59.191Z,102363.16
2022-08-10T16:22:00.566Z,102361.88
2022-08-10T16:24:58.402Z,102350.69
2022-08-10T16:28:23.058Z,102352.78
2022-08-10T16:31:22.859Z,102354.84
2022-08-10T16:34:20.820Z,102361.69
2022-08-10T16:37:18.060Z,102347.50
2022-08-10T16:40:15.240Z,102355.31
2022-08-10T16:43:12.930Z,102346.72
2022-08-10T16:46:16.573Z,102344.53
2022-08-10T16:49:14.619Z,102346.03
2022-08-10T16:52:12.047Z,102351.16
2022-08-10T16:55:23.856Z,102352.19
2022-08-10T16:58:41.307Z,102342.09
2022-08-10T17:01:39.238Z,102325.44
2022-08-10T17:04:37.442Z,102327.38
2022-08-10T17:07:35.294Z,102331.41
2022-08-10T17:10:32.134Z,102331.69
2022-08-10T17:13:30.885Z,102336.53
2022-08-10T17:16:34.701Z,102326.03
2022-08-10T17:19:35.871Z,102330.72
2022-08-10T17:22:37.831Z,102334.91
2022-08-10T17:25:48.903Z,102334.16
2022-08-10T17:28:50.274Z,102332.31
2022-08-10T17:31:54.590Z,102318.50
2022-08-10T17:34:55.796Z,102315.69
2022-08-10T17:38:16.532Z,102313.75
2022-08-10T17:41:16.940Z,102303.53
2022-08-10T17:44:14.079Z,102303.53
2022-08-10T17:47:11.638Z,102305.00
2022-08-10T17:50:09.546Z,102311.00
2022-08-10T17:53:12.419Z,102312.91
2022-08-10T17:56:10.218Z,102312.44
2022-08-10T17:59:16.813Z,102316.25
2022-08-10T18:02:17.579Z,102307.41
2022-08-10T18:05:15.054Z,102313.44
2022-08-10T18:08:12.235Z,102315.88
2022-08-10T18:11:11.648Z,102317.00
2022-08-10T18:14:09.074Z,102317.56
2022-08-10T18:17:11.258Z,102315.19
2022-08-10T18:20:08.366Z,102321.84
2022-08-10T18:23:05.432Z,102322.03
2022-08-10T18:26:05.410Z,102318.78
2022-08-10T18:29:02.222Z,102321.84
2022-08-10T18:32:00.338Z,102314.31
2022-08-10T18:34:59.026Z,102323.09
2022-08-10T18:37:57.472Z,102327.88
2022-08-10T18:40:58.684Z,102331.19
2022-08-10T18:44:07.109Z,102325.16
2022-08-10T18:47:17.377Z,102335.59
2022-08-10T18:50:16.004Z,102341.00
2022-08-10T18:53:16.277Z,102334.97
2022-08-10T18:56:30.479Z,102322.72
2022-08-10T19:00:07.432Z,102339.31
2022-08-10T19:03:30.429Z,102334.03
2022-08-10T19:06:45.968Z,102344.41
2022-08-10T19:09:56.064Z,102354.78
2022-08-10T19:13:31.825Z,102342.47
2022-08-10T19:16:52.617Z,102343.88
2022-08-10T19:20:18.272Z,102358.75
2022-08-10T19:23:27.629Z,102352.97
2022-08-10T19:26:41.368Z,102348.06
2022-08-10T19:30:12.366Z,102337.41
2022-08-10T19:33:32.273Z,102344.00
2022-08-10T19:37:16.874Z,102353.03
2022-08-10T19:40:43.275Z,102357.97
2022-08-10T19:44:12.391Z,102358.03
2022-08-10T19:47:46.757Z,102352.34
2022-08-10T19:50:56.235Z,102353.13
2022-08-10T19:53:59.237Z,102358.03
2022-08-10T19:57:15.695Z,102351.94
2022-08-10T20:00:23.031Z,102352.41
2022-08-10T20:03:42.484Z,102356.13
2022-08-10T20:07:02.153Z,102356.97
2022-08-10T20:10:04.814Z,102363.19
2022-08-10T20:13:27.717Z,102356.19
2022-08-10T20:16:27.072Z,102360.28
2022-08-10T20:19:53.995Z,102342.94
2022-08-10T20:22:59.366Z,102361.03
2022-08-10T20:26:00.654Z,102360.25
2022-08-10T20:29:09.397Z,102352.81
2022-08-10T20:32:12.487Z,102358.97
2022-08-10T20:35:15.446Z,102368.06
2022-08-10T20:38:15.986Z,102356.91
2022-08-10T20:41:46.137Z,102361.03
2022-08-10T20:44:50.687Z,102365.97
2022-08-10T20:47:55.526Z,102356.47
2022-08-10T20:51:04.180Z,102360.97
2022-08-10T20:54:01.095Z,102362.19
2022-08-10T20:57:55.567Z,102354.41
2022-08-10T21:00:36.685Z,102363.00
2022-08-10T21:04:00.358Z,102363.75
2022-08-10T21:07:44.000Z,102360.84
2022-08-10T21:10:52.506Z,102354.78
2022-08-10T21:14:14.567Z,102358.91
2022-08-10T21:20:59.435Z,102352.56
2022-08-10T21:23:57.892Z,102356.25
2022-08-10T21:26:55.059Z,102359.56
2022-08-10T21:30:11.025Z,102352.16
2022-08-10T21:33:12.636Z,102343.56
2022-08-10T21:36:15.181Z,102352.25
2022-08-10T21:39:42.018Z,102346.00
2022-08-10T21:43:11.178Z,102341.69
2022-08-10T21:46:54.847Z,102346.16
2022-08-10T21:50:17.625Z,102349.50
2022-08-10T21:53:48.314Z,102349.06
2022-08-10T21:57:19.966Z,102353.69
2022-08-10T22:00:35.792Z,102349.94
2022-08-10T22:03:54.093Z,102335.13
2022-08-10T22:07:09.606Z,102347.47
2022-08-10T22:10:27.467Z,102342.59
2022-08-10T22:13:42.752Z,102329.38
2022-08-10T22:17:02.051Z,102328.81
2022-08-10T22:20:24.834Z,102337.00
2022-08-10T22:24:16.739Z,102338.53
2022-08-10T22:27:47.587Z,102331.44
2022-08-10T22:31:24.472Z,102350.09
2022-08-10T22:31:31.009Z,102327.75
2022-08-10T22:34:57.157Z,102331.50
2022-08-10T22:38:38.150Z,102334.91
2022-08-10T22:42:15.516Z,102327.81
2022-08-10T22:45:33.453Z,102337.38
2022-08-10T22:48:50.740Z,102337.59
2022-08-10T22:52:13.711Z,102336.53
2022-08-10T22:55:36.832Z,102333.97
2022-08-10T22:58:40.302Z,102315.84
2022-08-10T23:02:08.441Z,102316.31
2022-08-10T23:05:14.622Z,102316.66
2022-08-10T23:08:29.951Z,102313.63
2022-08-10T23:11:33.415Z,102315.59
2022-08-10T23:14:36.175Z,102305.66
2022-08-10T23:18:01.674Z,102310.50
2022-08-10T23:20:59.132Z,102302.16
2022-08-10T23:23:57.600Z,102304.50
2022-08-10T23:26:54.503Z,102300.97
2022-08-10T23:30:03.866Z,102297.78
2022-08-10T23:33:08.846Z,102305.22
2022-08-10T23:36:33.595Z,102294.34
2022-08-10T23:39:37.456Z,102289.28
2022-08-10T23:42:38.727Z,102289.38
2022-08-10T23:45:53.298Z,102287.88
2022-08-10T23:48:52.993Z,102298.72
2022-08-10T23:51:55.544Z,102287.72
2022-08-10T23:54:58.420Z,102293.97
2022-08-10T23:57:58.430Z,102296.56
